sensor_id;sensor_type;location;lat;lon;timestamp;P1;durP1;ratioP1;P2;durP2;ratioP2
75356;SDS011;63946;51.986;5.930;2024-02-16T00:00:02;3.50;;;1.85;;
75356;SDS011;63946;51.986;5.930;2024-02-16T00:02:37;4.75;;;2.20;;
75356;SDS011;63946;51.986;5.930;2024-02-16T00:05:08;5.13;;;2.05;;
75356;SDS011;63946;51.986;5.930;2024-02-16T00:07:37;3.63;;;1.75;;
75356;SDS011;63946;51.986;5.930;2024-02-16T00:10:07;2.90;;;1.67;;
75356;SDS011;63946;51.986;5.930;2024-02-16T00:15:07;3.22;;;1.73;;
75356;SDS011;63946;51.986;5.930;2024-02-16T00:17:36;3.60;;;1.90;;
75356;SDS011;63946;51.986;5.930;2024-02-16T00:20:05;4.20;;;2.25;;
75356;SDS011;63946;51.986;5.930;2024-02-16T00:22:38;4.22;;;1.80;;
75356;SDS011;63946;51.986;5.930;2024-02-16T00:25:07;4.18;;;2.28;;
75356;SDS011;63946;51.986;5.930;2024-02-16T00:27:36;3.53;;;1.77;;
75356;SDS011;63946;51.986;5.930;2024-02-16T00:30:05;4.35;;;2.35;;
75356;SDS011;63946;51.986;5.930;2024-02-16T00:32:35;3.13;;;1.83;;
75356;SDS011;63946;51.986;5.930;2024-02-16T00:35:04;3.80;;;2.75;;
75356;SDS011;63946;51.986;5.930;2024-02-16T00:37:33;2.47;;;1.70;;
75356;SDS011;63946;51.986;5.930;2024-02-16T00:40:06;3.75;;;2.00;;
75356;SDS011;63946;51.986;5.930;2024-02-16T00:42:36;6.03;;;2.28;;
75356;SDS011;63946;51.986;5.930;2024-02-16T00:45:05;4.32;;;1.88;;
75356;SDS011;63946;51.986;5.930;2024-02-16T00:47:34;4.20;;;1.83;;
75356;SDS011;63946;51.986;5.930;2024-02-16T00:50:03;4.45;;;1.73;;
75356;SDS011;63946;51.986;5.930;2024-02-16T00:52:34;4.63;;;1.98;;
75356;SDS011;63946;51.986;5.930;2024-02-16T00:55:04;4.95;;;1.90;;
75356;SDS011;63946;51.986;5.930;2024-02-16T00:57:33;3.15;;;1.92;;
75356;SDS011;63946;51.986;5.930;2024-02-16T01:00:02;3.22;;;1.63;;
75356;SDS011;63946;51.986;5.930;2024-02-16T01:02:34;3.55;;;2.00;;
75356;SDS011;63946;51.986;5.930;2024-02-16T01:05:04;4.15;;;2.08;;
75356;SDS011;63946;51.986;5.930;2024-02-16T01:07:36;4.03;;;1.70;;
75356;SDS011;63946;51.986;5.930;2024-02-16T01:10:06;3.78;;;2.03;;
75356;SDS011;63946;51.986;5.930;2024-02-16T01:12:36;4.57;;;2.00;;
75356;SDS011;63946;51.986;5.930;2024-02-16T01:15:05;6.53;;;1.90;;
75356;SDS011;63946;51.986;5.930;2024-02-16T01:17:34;4.63;;;1.80;;
75356;SDS011;63946;51.986;5.930;2024-02-16T01:20:05;4.13;;;1.77;;
75356;SDS011;63946;51.986;5.930;2024-02-16T01:22:36;5.03;;;2.10;;
75356;SDS011;63946;51.986;5.930;2024-02-16T01:25:05;4.43;;;2.15;;
75356;SDS011;63946;51.986;5.930;2024-02-16T01:27:35;3.03;;;1.80;;
75356;SDS011;63946;51.986;5.930;2024-02-16T01:30:06;4.78;;;2.30;;
75356;SDS011;63946;51.986;5.930;2024-02-16T01:32:35;5.60;;;2.08;;
75356;SDS011;63946;51.986;5.930;2024-02-16T01:35:04;4.85;;;1.98;;
75356;SDS011;63946;51.986;5.930;2024-02-16T01:37:38;5.78;;;2.10;;
75356;SDS011;63946;51.986;5.930;2024-02-16T01:40:08;3.28;;;1.98;;
75356;SDS011;63946;51.986;5.930;2024-02-16T01:42:42;6.68;;;2.72;;
75356;SDS011;63946;51.986;5.930;2024-02-16T01:45:11;4.25;;;1.92;;
75356;SDS011;63946;51.986;5.930;2024-02-16T01:47:41;4.68;;;1.73;;
75356;SDS011;63946;51.986;5.930;2024-02-16T01:50:12;4.72;;;2.10;;
75356;SDS011;63946;51.986;5.930;2024-02-16T01:52:43;3.42;;;2.03;;
75356;SDS011;63946;51.986;5.930;2024-02-16T01:55:13;3.15;;;1.80;;
75356;SDS011;63946;51.986;5.930;2024-02-16T01:57:44;7.05;;;2.25;;
75356;SDS011;63946;51.986;5.930;2024-02-16T02:00:14;3.15;;;1.75;;
75356;SDS011;63946;51.986;5.930;2024-02-16T02:02:45;2.95;;;1.75;;
75356;SDS011;63946;51.986;5.930;2024-02-16T02:05:14;4.75;;;2.20;;
75356;SDS011;63946;51.986;5.930;2024-02-16T02:07:43;4.20;;;2.13;;
75356;SDS011;63946;51.986;5.930;2024-02-16T02:10:12;3.65;;;1.90;;
75356;SDS011;63946;51.986;5.930;2024-02-16T02:12:41;3.15;;;1.65;;
75356;SDS011;63946;51.986;5.930;2024-02-16T02:15:11;4.20;;;1.92;;
75356;SDS011;63946;51.986;5.930;2024-02-16T02:17:41;3.72;;;1.85;;
75356;SDS011;63946;51.986;5.930;2024-02-16T02:20:10;4.32;;;1.90;;
75356;SDS011;63946;51.986;5.930;2024-02-16T02:22:39;4.50;;;2.05;;
75356;SDS011;63946;51.986;5.930;2024-02-16T02:25:08;4.57;;;2.05;;
75356;SDS011;63946;51.986;5.930;2024-02-16T02:27:38;3.15;;;1.98;;
75356;SDS011;63946;51.986;5.930;2024-02-16T02:30:08;3.88;;;1.83;;
75356;SDS011;63946;51.986;5.930;2024-02-16T02:32:37;5.50;;;1.77;;
75356;SDS011;63946;51.986;5.930;2024-02-16T02:35:08;4.07;;;1.75;;
75356;SDS011;63946;51.986;5.930;2024-02-16T02:37:40;5.20;;;2.38;;
75356;SDS011;63946;51.986;5.930;2024-02-16T02:40:11;4.93;;;2.30;;
75356;SDS011;63946;51.986;5.930;2024-02-16T02:42:40;5.40;;;2.00;;
75356;SDS011;63946;51.986;5.930;2024-02-16T02:45:09;4.80;;;2.10;;
75356;SDS011;63946;51.986;5.930;2024-02-16T02:47:38;4.28;;;1.95;;
75356;SDS011;63946;51.986;5.930;2024-02-16T02:50:09;4.43;;;1.80;;
75356;SDS011;63946;51.986;5.930;2024-02-16T02:52:38;4.20;;;2.22;;
75356;SDS011;63946;51.986;5.930;2024-02-16T02:55:07;4.15;;;2.08;;
75356;SDS011;63946;51.986;5.930;2024-02-16T02:57:39;3.67;;;1.65;;
75356;SDS011;63946;51.986;5.930;2024-02-16T03:00:11;4.47;;;1.70;;
75356;SDS011;63946;51.986;5.930;2024-02-16T03:02:40;3.40;;;1.67;;
75356;SDS011;63946;51.986;5.930;2024-02-16T03:05:10;5.13;;;2.00;;
75356;SDS011;63946;51.986;5.930;2024-02-16T03:07:39;4.82;;;2.20;;
75356;SDS011;63946;51.986;5.930;2024-02-16T03:10:10;2.05;;;1.33;;
75356;SDS011;63946;51.986;5.930;2024-02-16T03:12:46;3.10;;;1.80;;
75356;SDS011;63946;51.986;5.930;2024-02-16T03:15:16;3.58;;;2.10;;
75356;SDS011;63946;51.986;5.930;2024-02-16T03:17:45;6.35;;;2.00;;
75356;SDS011;63946;51.986;5.930;2024-02-16T03:20:14;4.55;;;2.05;;
75356;SDS011;63946;51.986;5.930;2024-02-16T03:22:42;2.90;;;1.60;;
75356;SDS011;63946;51.986;5.930;2024-02-16T03:25:11;2.90;;;1.83;;
75356;SDS011;63946;51.986;5.930;2024-02-16T03:27:40;3.65;;;1.80;;
75356;SDS011;63946;51.986;5.930;2024-02-16T03:30:09;3.63;;;2.08;;
75356;SDS011;63946;51.986;5.930;2024-02-16T03:32:38;4.43;;;2.08;;
75356;SDS011;63946;51.986;5.930;2024-02-16T03:35:07;3.42;;;1.80;;
75356;SDS011;63946;51.986;5.930;2024-02-16T03:37:36;3.40;;;2.20;;
75356;SDS011;63946;51.986;5.930;2024-02-16T03:40:05;3.22;;;2.15;;
75356;SDS011;63946;51.986;5.930;2024-02-16T03:42:35;5.50;;;2.05;;
75356;SDS011;63946;51.986;5.930;2024-02-16T03:45:04;3.50;;;1.75;;
75356;SDS011;63946;51.986;5.930;2024-02-16T03:47:33;3.67;;;2.60;;
75356;SDS011;63946;51.986;5.930;2024-02-16T03:50:02;2.47;;;1.58;;
75356;SDS011;63946;51.986;5.930;2024-02-16T03:52:32;4.50;;;1.90;;
75356;SDS011;63946;51.986;5.930;2024-02-16T03:55:01;4.10;;;1.98;;
75356;SDS011;63946;51.986;5.930;2024-02-16T03:57:31;4.55;;;2.25;;
75356;SDS011;63946;51.986;5.930;2024-02-16T04:00:01;3.55;;;2.05;;
75356;SDS011;63946;51.986;5.930;2024-02-16T04:02:38;3.33;;;1.73;;
75356;SDS011;63946;51.986;5.930;2024-02-16T04:05:08;8.30;;;2.42;;
75356;SDS011;63946;51.986;5.930;2024-02-16T04:07:36;4.68;;;2.42;;
75356;SDS011;63946;51.986;5.930;2024-02-16T04:10:09;3.88;;;2.20;;
75356;SDS011;63946;51.986;5.930;2024-02-16T04:12:38;3.75;;;1.88;;
75356;SDS011;63946;51.986;5.930;2024-02-16T04:15:07;2.92;;;1.50;;
75356;SDS011;63946;51.986;5.930;2024-02-16T04:17:36;3.38;;;1.58;;
75356;SDS011;63946;51.986;5.930;2024-02-16T04:20:05;4.20;;;1.83;;
75356;SDS011;63946;51.986;5.930;2024-02-16T04:22:34;4.18;;;2.22;;
75356;SDS011;63946;51.986;5.930;2024-02-16T04:25:04;5.22;;;1.77;;
75356;SDS011;63946;51.986;5.930;2024-02-16T04:27:35;4.88;;;1.90;;
75356;SDS011;63946;51.986;5.930;2024-02-16T04:30:05;3.15;;;1.77;;
75356;SDS011;63946;51.986;5.930;2024-02-16T04:32:34;5.18;;;2.33;;
75356;SDS011;63946;51.986;5.930;2024-02-16T04:35:05;5.60;;;1.85;;
75356;SDS011;63946;51.986;5.930;2024-02-16T04:37:37;4.70;;;2.05;;
75356;SDS011;63946;51.986;5.930;2024-02-16T04:40:07;2.70;;;1.67;;
75356;SDS011;63946;51.986;5.930;2024-02-16T04:42:38;2.47;;;1.70;;
75356;SDS011;63946;51.986;5.930;2024-02-16T04:45:11;4.88;;;1.92;;
75356;SDS011;63946;51.986;5.930;2024-02-16T04:47:40;3.42;;;1.60;;
75356;SDS011;63946;51.986;5.930;2024-02-16T04:50:09;2.63;;;1.90;;
75356;SDS011;63946;51.986;5.930;2024-02-16T04:52:39;4.47;;;1.98;;
75356;SDS011;63946;51.986;5.930;2024-02-16T04:55:09;4.15;;;2.10;;
75356;SDS011;63946;51.986;5.930;2024-02-16T04:57:41;2.83;;;1.80;;
75356;SDS011;63946;51.986;5.930;2024-02-16T05:00:10;3.53;;;1.90;;
75356;SDS011;63946;51.986;5.930;2024-02-16T05:02:40;5.78;;;2.10;;
75356;SDS011;63946;51.986;5.930;2024-02-16T05:05:11;3.95;;;2.03;;
75356;SDS011;63946;51.986;5.930;2024-02-16T05:07:42;2.80;;;1.98;;
75356;SDS011;63946;51.986;5.930;2024-02-16T05:10:11;3.10;;;2.08;;
75356;SDS011;63946;51.986;5.930;2024-02-16T05:12:41;4.38;;;2.20;;
75356;SDS011;63946;51.986;5.930;2024-02-16T05:15:11;3.95;;;2.00;;
75356;SDS011;63946;51.986;5.930;2024-02-16T05:17:41;3.05;;;2.25;;
75356;SDS011;63946;51.986;5.930;2024-02-16T05:20:13;3.42;;;1.92;;
75356;SDS011;63946;51.986;5.930;2024-02-16T05:22:45;4.18;;;2.08;;
75356;SDS011;63946;51.986;5.930;2024-02-16T05:25:18;3.70;;;2.28;;
75356;SDS011;63946;51.986;5.930;2024-02-16T05:27:47;5.38;;;1.92;;
75356;SDS011;63946;51.986;5.930;2024-02-16T05:30:16;2.90;;;1.88;;
75356;SDS011;63946;51.986;5.930;2024-02-16T05:32:44;3.13;;;2.00;;
75356;SDS011;63946;51.986;5.930;2024-02-16T05:35:17;4.05;;;2.30;;
75356;SDS011;63946;51.986;5.930;2024-02-16T05:37:47;4.50;;;2.40;;
75356;SDS011;63946;51.986;5.930;2024-02-16T05:40:17;3.53;;;1.88;;
75356;SDS011;63946;51.986;5.930;2024-02-16T05:42:59;4.97;;;2.47;;
75356;SDS011;63946;51.986;5.930;2024-02-16T05:45:34;2.78;;;1.55;;
75356;SDS011;63946;51.986;5.930;2024-02-16T05:48:03;3.50;;;2.10;;
75356;SDS011;63946;51.986;5.930;2024-02-16T05:50:39;3.15;;;1.80;;
75356;SDS011;63946;51.986;5.930;2024-02-16T05:53:11;3.67;;;2.13;;
75356;SDS011;63946;51.986;5.930;2024-02-16T05:55:40;4.00;;;2.25;;
75356;SDS011;63946;51.986;5.930;2024-02-16T05:58:10;3.08;;;1.95;;
75356;SDS011;63946;51.986;5.930;2024-02-16T06:00:39;4.38;;;2.28;;
75356;SDS011;63946;51.986;5.930;2024-02-16T06:03:13;3.08;;;1.83;;
75356;SDS011;63946;51.986;5.930;2024-02-16T06:05:42;2.90;;;1.90;;
75356;SDS011;63946;51.986;5.930;2024-02-16T06:08:12;3.97;;;2.00;;
75356;SDS011;63946;51.986;5.930;2024-02-16T06:10:43;3.40;;;2.10;;
75356;SDS011;63946;51.986;5.930;2024-02-16T06:13:17;3.90;;;2.00;;
75356;SDS011;63946;51.986;5.930;2024-02-16T06:15:46;4.53;;;2.00;;
75356;SDS011;63946;51.986;5.930;2024-02-16T06:18:15;3.53;;;2.03;;
75356;SDS011;63946;51.986;5.930;2024-02-16T06:20:44;3.92;;;2.38;;
75356;SDS011;63946;51.986;5.930;2024-02-16T06:23:13;3.63;;;2.28;;
75356;SDS011;63946;51.986;5.930;2024-02-16T06:25:42;4.97;;;2.53;;
75356;SDS011;63946;51.986;5.930;2024-02-16T06:28:11;4.53;;;2.22;;
75356;SDS011;63946;51.986;5.930;2024-02-16T06:30:40;4.35;;;2.03;;
75356;SDS011;63946;51.986;5.930;2024-02-16T06:33:14;5.28;;;2.25;;
75356;SDS011;63946;51.986;5.930;2024-02-16T06:35:47;9.93;;;2.08;;
75356;SDS011;63946;51.986;5.930;2024-02-16T06:38:15;8.88;;;2.50;;
75356;SDS011;63946;51.986;5.930;2024-02-16T06:40:46;5.97;;;2.38;;
75356;SDS011;63946;51.986;5.930;2024-02-16T06:43:18;6.97;;;2.47;;
75356;SDS011;63946;51.986;5.930;2024-02-16T06:45:46;3.55;;;2.30;;
75356;SDS011;63946;51.986;5.930;2024-02-16T06:48:15;7.78;;;2.85;;
75356;SDS011;63946;51.986;5.930;2024-02-16T06:50:44;3.38;;;1.95;;
75356;SDS011;63946;51.986;5.930;2024-02-16T06:53:13;4.88;;;2.30;;
75356;SDS011;63946;51.986;5.930;2024-02-16T06:55:41;7.28;;;2.30;;
75356;SDS011;63946;51.986;5.930;2024-02-16T06:58:10;3.90;;;2.00;;
75356;SDS011;63946;51.986;5.930;2024-02-16T07:00:39;4.13;;;2.22;;
75356;SDS011;63946;51.986;5.930;2024-02-16T07:03:08;5.18;;;2.38;;
75356;SDS011;63946;51.986;5.930;2024-02-16T07:05:37;4.47;;;2.38;;
75356;SDS011;63946;51.986;5.930;2024-02-16T07:08:06;4.97;;;2.67;;
75356;SDS011;63946;51.986;5.930;2024-02-16T07:10:35;6.10;;;2.75;;
75356;SDS011;63946;51.986;5.930;2024-02-16T07:13:05;5.38;;;2.63;;
75356;SDS011;63946;51.986;5.930;2024-02-16T07:15:33;8.18;;;2.58;;
75356;SDS011;63946;51.986;5.930;2024-02-16T07:18:02;3.97;;;2.42;;
75356;SDS011;63946;51.986;5.930;2024-02-16T07:20:31;5.93;;;2.63;;
75356;SDS011;63946;51.986;5.930;2024-02-16T07:23:00;4.22;;;2.40;;
75356;SDS011;63946;51.986;5.930;2024-02-16T07:25:29;5.50;;;2.40;;
75356;SDS011;63946;51.986;5.930;2024-02-16T07:27:58;4.30;;;2.60;;
75356;SDS011;63946;51.986;5.930;2024-02-16T07:30:27;5.40;;;2.78;;
75356;SDS011;63946;51.986;5.930;2024-02-16T07:32:55;5.57;;;2.55;;
75356;SDS011;63946;51.986;5.930;2024-02-16T07:35:24;8.63;;;2.40;;
75356;SDS011;63946;51.986;5.930;2024-02-16T07:37:55;10.18;;;2.60;;
75356;SDS011;63946;51.986;5.930;2024-02-16T07:40:24;3.80;;;2.40;;
75356;SDS011;63946;51.986;5.930;2024-02-16T07:42:55;4.03;;;2.90;;
75356;SDS011;63946;51.986;5.930;2024-02-16T07:45:30;6.20;;;2.67;;
75356;SDS011;63946;51.986;5.930;2024-02-16T07:47:58;4.25;;;2.40;;
75356;SDS011;63946;51.986;5.930;2024-02-16T07:50:30;4.20;;;2.47;;
75356;SDS011;63946;51.986;5.930;2024-02-16T07:52:59;4.28;;;2.10;;
75356;SDS011;63946;51.986;5.930;2024-02-16T07:55:28;3.45;;;2.40;;
75356;SDS011;63946;51.986;5.930;2024-02-16T07:58:00;4.93;;;2.30;;
75356;SDS011;63946;51.986;5.930;2024-02-16T08:00:28;4.82;;;2.83;;
75356;SDS011;63946;51.986;5.930;2024-02-16T08:02:57;6.45;;;2.45;;
75356;SDS011;63946;51.986;5.930;2024-02-16T08:05:29;5.50;;;2.72;;
75356;SDS011;63946;51.986;5.930;2024-02-16T08:07:58;8.52;;;3.15;;
75356;SDS011;63946;51.986;5.930;2024-02-16T08:10:26;5.03;;;2.67;;
75356;SDS011;63946;51.986;5.930;2024-02-16T08:12:55;4.88;;;2.92;;
75356;SDS011;63946;51.986;5.930;2024-02-16T08:15:26;4.45;;;2.58;;
75356;SDS011;63946;51.986;5.930;2024-02-16T08:17:55;5.65;;;2.50;;
75356;SDS011;63946;51.986;5.930;2024-02-16T08:20:24;5.95;;;3.05;;
75356;SDS011;63946;51.986;5.930;2024-02-16T08:22:52;7.75;;;2.75;;
75356;SDS011;63946;51.986;5.930;2024-02-16T08:25:24;4.70;;;2.55;;
75356;SDS011;63946;51.986;5.930;2024-02-16T08:27:56;5.50;;;2.95;;
75356;SDS011;63946;51.986;5.930;2024-02-16T08:30:25;3.60;;;2.83;;
75356;SDS011;63946;51.986;5.930;2024-02-16T08:32:53;5.05;;;2.38;;
75356;SDS011;63946;51.986;5.930;2024-02-16T08:35:23;4.15;;;2.75;;
75356;SDS011;63946;51.986;5.930;2024-02-16T08:37:53;4.95;;;2.67;;
75356;SDS011;63946;51.986;5.930;2024-02-16T08:40:22;4.13;;;2.75;;
75356;SDS011;63946;51.986;5.930;2024-02-16T08:42:51;8.20;;;2.92;;
75356;SDS011;63946;51.986;5.930;2024-02-16T08:45:19;6.25;;;2.53;;
75356;SDS011;63946;51.986;5.930;2024-02-16T08:47:48;4.93;;;2.53;;
75356;SDS011;63946;51.986;5.930;2024-02-16T08:50:22;5.13;;;2.58;;
75356;SDS011;63946;51.986;5.930;2024-02-16T08:52:52;5.18;;;3.00;;
75356;SDS011;63946;51.986;5.930;2024-02-16T08:55:21;5.18;;;2.83;;
75356;SDS011;63946;51.986;5.930;2024-02-16T08:57:49;6.85;;;2.95;;
75356;SDS011;63946;51.986;5.930;2024-02-16T09:00:18;7.63;;;3.33;;
75356;SDS011;63946;51.986;5.930;2024-02-16T09:02:52;4.85;;;2.60;;
75356;SDS011;63946;51.986;5.930;2024-02-16T09:05:23;5.53;;;3.55;;
75356;SDS011;63946;51.986;5.930;2024-02-16T09:07:54;4.97;;;2.95;;
75356;SDS011;63946;51.986;5.930;2024-02-16T09:10:23;5.18;;;2.88;;
75356;SDS011;63946;51.986;5.930;2024-02-16T09:12:52;4.57;;;2.67;;
75356;SDS011;63946;51.986;5.930;2024-02-16T09:15:20;6.45;;;3.13;;
75356;SDS011;63946;51.986;5.930;2024-02-16T09:17:49;5.93;;;2.88;;
75356;SDS011;63946;51.986;5.930;2024-02-16T09:20:18;4.65;;;2.90;;
75356;SDS011;63946;51.986;5.930;2024-02-16T09:22:50;4.93;;;2.97;;
75356;SDS011;63946;51.986;5.930;2024-02-16T09:25:19;5.78;;;3.55;;
75356;SDS011;63946;51.986;5.930;2024-02-16T09:27:50;6.40;;;3.30;;
75356;SDS011;63946;51.986;5.930;2024-02-16T09:30:19;8.65;;;3.92;;
75356;SDS011;63946;51.986;5.930;2024-02-16T09:32:50;6.15;;;3.40;;
75356;SDS011;63946;51.986;5.930;2024-02-16T09:35:19;4.55;;;3.42;;
75356;SDS011;63946;51.986;5.930;2024-02-16T09:37:58;7.97;;;3.58;;
75356;SDS011;63946;51.986;5.930;2024-02-16T09:40:27;7.50;;;3.58;;
75356;SDS011;63946;51.986;5.930;2024-02-16T09:42:56;7.13;;;3.53;;
75356;SDS011;63946;51.986;5.930;2024-02-16T09:45:25;7.90;;;3.45;;
75356;SDS011;63946;51.986;5.930;2024-02-16T09:47:55;12.38;;;3.97;;
75356;SDS011;63946;51.986;5.930;2024-02-16T09:50:25;5.72;;;3.75;;
75356;SDS011;63946;51.986;5.930;2024-02-16T09:52:55;6.88;;;2.90;;
75356;SDS011;63946;51.986;5.930;2024-02-16T09:55:29;6.03;;;3.00;;
75356;SDS011;63946;51.986;5.930;2024-02-16T09:58:01;7.47;;;3.17;;
75356;SDS011;63946;51.986;5.930;2024-02-16T10:00:30;7.95;;;3.63;;
75356;SDS011;63946;51.986;5.930;2024-02-16T10:02:59;7.05;;;3.95;;
75356;SDS011;63946;51.986;5.930;2024-02-16T10:05:28;6.28;;;3.58;;
75356;SDS011;63946;51.986;5.930;2024-02-16T10:07:57;6.88;;;4.53;;
75356;SDS011;63946;51.986;5.930;2024-02-16T10:10:27;5.47;;;3.70;;
75356;SDS011;63946;51.986;5.930;2024-02-16T10:13:05;6.63;;;3.65;;
75356;SDS011;63946;51.986;5.930;2024-02-16T10:15:37;6.47;;;3.28;;
75356;SDS011;63946;51.986;5.930;2024-02-16T10:18:06;6.93;;;3.30;;
75356;SDS011;63946;51.986;5.930;2024-02-16T10:20:35;6.22;;;3.10;;
75356;SDS011;63946;51.986;5.930;2024-02-16T10:23:09;8.65;;;4.38;;
75356;SDS011;63946;51.986;5.930;2024-02-16T10:25:39;7.20;;;4.18;;
75356;SDS011;63946;51.986;5.930;2024-02-16T10:28:09;7.57;;;3.72;;
75356;SDS011;63946;51.986;5.930;2024-02-16T10:30:40;10.32;;;3.78;;
75356;SDS011;63946;51.986;5.930;2024-02-16T10:33:13;9.73;;;4.15;;
75356;SDS011;63946;51.986;5.930;2024-02-16T10:35:42;9.68;;;4.35;;
75356;SDS011;63946;51.986;5.930;2024-02-16T10:38:12;5.88;;;3.95;;
75356;SDS011;63946;51.986;5.930;2024-02-16T10:40:42;7.85;;;3.80;;
75356;SDS011;63946;51.986;5.930;2024-02-16T10:43:11;8.45;;;4.00;;
75356;SDS011;63946;51.986;5.930;2024-02-16T10:45:42;8.18;;;4.80;;
75356;SDS011;63946;51.986;5.930;2024-02-16T10:48:15;6.55;;;3.80;;
75356;SDS011;63946;51.986;5.930;2024-02-16T10:50:44;7.25;;;3.20;;
75356;SDS011;63946;51.986;5.930;2024-02-16T10:55:51;7.05;;;4.15;;
75356;SDS011;63946;51.986;5.930;2024-02-16T10:58:21;8.85;;;4.40;;
75356;SDS011;63946;51.986;5.930;2024-02-16T11:00:51;5.82;;;4.18;;
75356;SDS011;63946;51.986;5.930;2024-02-16T11:03:21;6.93;;;3.55;;
75356;SDS011;63946;51.986;5.930;2024-02-16T11:06:00;7.45;;;4.85;;
75356;SDS011;63946;51.986;5.930;2024-02-16T11:08:29;6.43;;;3.60;;
75356;SDS011;63946;51.986;5.930;2024-02-16T11:11:06;7.57;;;4.93;;
75356;SDS011;63946;51.986;5.930;2024-02-16T11:13:37;10.48;;;4.95;;
75356;SDS011;63946;51.986;5.930;2024-02-16T11:16:07;12.88;;;4.97;;
75356;SDS011;63946;51.986;5.930;2024-02-16T11:18:39;11.48;;;4.65;;
75356;SDS011;63946;51.986;5.930;2024-02-16T11:21:15;6.85;;;4.40;;
75356;SDS011;63946;51.986;5.930;2024-02-16T11:23:44;6.93;;;4.95;;
75356;SDS011;63946;51.986;5.930;2024-02-16T11:26:13;9.80;;;5.25;;
75356;SDS011;63946;51.986;5.930;2024-02-16T11:28:45;7.97;;;4.45;;
75356;SDS011;63946;51.986;5.930;2024-02-16T11:31:18;9.48;;;5.00;;
75356;SDS011;63946;51.986;5.930;2024-02-16T11:33:47;8.68;;;5.53;;
75356;SDS011;63946;51.986;5.930;2024-02-16T11:36:16;8.32;;;5.47;;
75356;SDS011;63946;51.986;5.930;2024-02-16T11:38:45;7.03;;;4.88;;
75356;SDS011;63946;51.986;5.930;2024-02-16T11:41:14;7.45;;;5.13;;
75356;SDS011;63946;51.986;5.930;2024-02-16T11:43:43;8.50;;;5.38;;
75356;SDS011;63946;51.986;5.930;2024-02-16T11:46:13;7.68;;;4.65;;
75356;SDS011;63946;51.986;5.930;2024-02-16T11:48:43;7.25;;;6.00;;
75356;SDS011;63946;51.986;5.930;2024-02-16T11:51:14;8.75;;;5.40;;
75356;SDS011;63946;51.986;5.930;2024-02-16T11:53:44;9.45;;;6.75;;
75356;SDS011;63946;51.986;5.930;2024-02-16T11:56:21;7.50;;;5.60;;
75356;SDS011;63946;51.986;5.930;2024-02-16T11:58:53;7.60;;;5.57;;
75356;SDS011;63946;51.986;5.930;2024-02-16T12:01:22;10.32;;;6.68;;
75356;SDS011;63946;51.986;5.930;2024-02-16T12:03:51;9.48;;;5.68;;
75356;SDS011;63946;51.986;5.930;2024-02-16T12:06:23;11.20;;;6.45;;
75356;SDS011;63946;51.986;5.930;2024-02-16T12:08:51;7.95;;;5.45;;
75356;SDS011;63946;51.986;5.930;2024-02-16T12:11:20;8.93;;;5.78;;
75356;SDS011;63946;51.986;5.930;2024-02-16T12:13:54;7.95;;;6.00;;
75356;SDS011;63946;51.986;5.930;2024-02-16T12:16:25;8.23;;;6.03;;
75356;SDS011;63946;51.986;5.930;2024-02-16T12:19:01;7.57;;;5.93;;
75356;SDS011;63946;51.986;5.930;2024-02-16T12:21:37;8.93;;;5.97;;
75356;SDS011;63946;51.986;5.930;2024-02-16T12:24:06;8.57;;;5.35;;
75356;SDS011;63946;51.986;5.930;2024-02-16T12:26:36;7.43;;;5.18;;
75356;SDS011;63946;51.986;5.930;2024-02-16T12:29:06;5.75;;;4.78;;
75356;SDS011;63946;51.986;5.930;2024-02-16T12:31:39;9.50;;;6.07;;
75356;SDS011;63946;51.986;5.930;2024-02-16T12:34:10;9.57;;;5.85;;
75356;SDS011;63946;51.986;5.930;2024-02-16T12:36:42;7.63;;;5.90;;
75356;SDS011;63946;51.986;5.930;2024-02-16T12:39:11;7.03;;;5.25;;
75356;SDS011;63946;51.986;5.930;2024-02-16T12:41:41;8.65;;;5.35;;
75356;SDS011;63946;51.986;5.930;2024-02-16T12:44:14;6.00;;;4.93;;
75356;SDS011;63946;51.986;5.930;2024-02-16T12:46:43;5.75;;;4.85;;
75356;SDS011;63946;51.986;5.930;2024-02-16T12:49:12;9.30;;;5.75;;
75356;SDS011;63946;51.986;5.930;2024-02-16T12:51:41;7.13;;;5.80;;
75356;SDS011;63946;51.986;5.930;2024-02-16T12:54:10;7.65;;;5.35;;
75356;SDS011;63946;51.986;5.930;2024-02-16T12:56:42;6.68;;;5.55;;
75356;SDS011;63946;51.986;5.930;2024-02-16T12:59:11;7.30;;;5.32;;
75356;SDS011;63946;51.986;5.930;2024-02-16T13:01:45;5.38;;;4.40;;
75356;SDS011;63946;51.986;5.930;2024-02-16T13:06:47;5.38;;;4.53;;
75356;SDS011;63946;51.986;5.930;2024-02-16T13:09:17;8.27;;;5.90;;
75356;SDS011;63946;51.986;5.930;2024-02-16T13:11:47;7.00;;;4.97;;
75356;SDS011;63946;51.986;5.930;2024-02-16T13:14:20;6.45;;;5.60;;
75356;SDS011;63946;51.986;5.930;2024-02-16T13:16:50;8.38;;;6.50;;
75356;SDS011;63946;51.986;5.930;2024-02-16T13:19:18;7.45;;;6.15;;
75356;SDS011;63946;51.986;5.930;2024-02-16T13:21:50;9.00;;;6.45;;
75356;SDS011;63946;51.986;5.930;2024-02-16T13:24:19;9.10;;;6.45;;
75356;SDS011;63946;51.986;5.930;2024-02-16T13:26:47;7.30;;;5.88;;
75356;SDS011;63946;51.986;5.930;2024-02-16T13:29:19;7.07;;;6.32;;
75356;SDS011;63946;51.986;5.930;2024-02-16T13:31:47;6.68;;;5.07;;
75356;SDS011;63946;51.986;5.930;2024-02-16T13:34:16;7.82;;;5.25;;
75356;SDS011;63946;51.986;5.930;2024-02-16T13:36:45;6.72;;;4.65;;
75356;SDS011;63946;51.986;5.930;2024-02-16T13:39:14;6.78;;;5.55;;
75356;SDS011;63946;51.986;5.930;2024-02-16T13:41:43;6.50;;;4.78;;
75356;SDS011;63946;51.986;5.930;2024-02-16T13:44:12;7.63;;;5.28;;
75356;SDS011;63946;51.986;5.930;2024-02-16T13:46:41;6.15;;;4.25;;
75356;SDS011;63946;51.986;5.930;2024-02-16T13:49:12;6.65;;;5.00;;
75356;SDS011;63946;51.986;5.930;2024-02-16T13:51:42;5.55;;;4.57;;
75356;SDS011;63946;51.986;5.930;2024-02-16T13:54:14;5.10;;;3.83;;
75356;SDS011;63946;51.986;5.930;2024-02-16T13:56:43;7.20;;;4.57;;
75356;SDS011;63946;51.986;5.930;2024-02-16T13:59:12;4.97;;;3.78;;
75356;SDS011;63946;51.986;5.930;2024-02-16T14:01:41;6.07;;;3.60;;
75356;SDS011;63946;51.986;5.930;2024-02-16T14:04:10;4.13;;;3.72;;
75356;SDS011;63946;51.986;5.930;2024-02-16T14:06:38;4.95;;;3.90;;
75356;SDS011;63946;51.986;5.930;2024-02-16T14:09:10;4.25;;;3.30;;
75356;SDS011;63946;51.986;5.930;2024-02-16T14:11:40;3.88;;;2.95;;
75356;SDS011;63946;51.986;5.930;2024-02-16T14:14:16;5.72;;;3.10;;
75356;SDS011;63946;51.986;5.930;2024-02-16T14:16:45;4.63;;;3.47;;
75356;SDS011;63946;51.986;5.930;2024-02-16T14:19:14;5.00;;;3.35;;
75356;SDS011;63946;51.986;5.930;2024-02-16T14:21:43;4.38;;;3.42;;
75356;SDS011;63946;51.986;5.930;2024-02-16T14:24:13;5.47;;;4.50;;
75356;SDS011;63946;51.986;5.930;2024-02-16T14:26:42;4.57;;;3.38;;
75356;SDS011;63946;51.986;5.930;2024-02-16T14:29:11;3.47;;;2.70;;
75356;SDS011;63946;51.986;5.930;2024-02-16T14:31:40;4.78;;;3.28;;
75356;SDS011;63946;51.986;5.930;2024-02-16T14:34:17;3.55;;;2.53;;
75356;SDS011;63946;51.986;5.930;2024-02-16T14:36:46;3.53;;;2.60;;
75356;SDS011;63946;51.986;5.930;2024-02-16T14:39:15;3.95;;;2.50;;
75356;SDS011;63946;51.986;5.930;2024-02-16T14:41:44;3.80;;;2.55;;
75356;SDS011;63946;51.986;5.930;2024-02-16T14:44:13;2.80;;;2.20;;
75356;SDS011;63946;51.986;5.930;2024-02-16T14:46:42;3.53;;;2.08;;
75356;SDS011;63946;51.986;5.930;2024-02-16T14:49:11;3.00;;;1.90;;
75356;SDS011;63946;51.986;5.930;2024-02-16T14:51:49;2.63;;;1.80;;
75356;SDS011;63946;51.986;5.930;2024-02-16T14:54:21;1.88;;;1.30;;
75356;SDS011;63946;51.986;5.930;2024-02-16T14:56:54;2.30;;;1.33;;
75356;SDS011;63946;51.986;5.930;2024-02-16T14:59:23;2.40;;;1.75;;
75356;SDS011;63946;51.986;5.930;2024-02-16T15:01:52;2.13;;;1.33;;
75356;SDS011;63946;51.986;5.930;2024-02-16T15:04:26;2.72;;;1.33;;
75356;SDS011;63946;51.986;5.930;2024-02-16T15:06:56;2.70;;;1.70;;
75356;SDS011;63946;51.986;5.930;2024-02-16T15:09:25;2.63;;;1.55;;
75356;SDS011;63946;51.986;5.930;2024-02-16T15:11:54;3.00;;;1.63;;